createdAt,value
2023-05-20T00:00:17.622Z,44.79
2023-05-20T00:02:45.922Z,44.61
2023-05-20T00:05:13.977Z,44.65
2023-05-20T00:07:41.818Z,44.52
2023-05-20T00:10:10.229Z,44.41
2023-05-20T00:12:41.399Z,44.06
2023-05-20T00:15:10.058Z,43.80
2023-05-20T00:17:38.245Z,43.92
2023-05-20T00:20:06.859Z,43.86
2023-05-20T00:22:34.744Z,43.78
2023-05-20T00:25:02.415Z,43.90
2023-05-20T00:27:30.432Z,43.85
2023-05-20T00:29:58.085Z,44.08
2023-05-20T00:32:26.151Z,44.16
2023-05-20T00:34:58.762Z,44.52
2023-05-20T00:37:26.985Z,44.45
2023-05-20T00:39:55.197Z,44.71
2023-05-20T00:42:24.697Z,44.59
2023-05-20T00:44:53.586Z,44.67
2023-05-20T00:47:26.474Z,44.94
2023-05-20T00:49:54.568Z,44.65
2023-05-20T00:52:22.981Z,44.65
2023-05-20T00:54:51.806Z,44.74
2023-05-20T00:57:20.969Z,44.84
2023-05-20T00:59:49.106Z,45.01
2023-05-20T01:02:17.321Z,44.99
2023-05-20T01:04:47.758Z,45.23
2023-05-20T01:07:17.816Z,45.37
2023-05-20T01:09:46.180Z,45.67
2023-05-20T01:12:21.528Z,45.53
2023-05-20T01:15:10.236Z,45.67
2023-05-20T01:17:51.778Z,45.63
2023-05-20T01:20:21.839Z,45.75
2023-05-20T01:22:53.961Z,45.92
2023-05-20T01:25:22.079Z,46.09
2023-05-20T01:27:53.084Z,46.11
2023-05-20T01:30:22.244Z,46.20
2023-05-20T01:32:58.611Z,46.26
2023-05-20T01:35:26.821Z,46.44
2023-05-20T01:37:56.369Z,46.34
2023-05-20T01:40:25.084Z,46.41
2023-05-20T01:42:55.338Z,46.71
2023-05-20T01:45:25.561Z,46.75
2023-05-20T01:47:53.571Z,46.85
2023-05-20T01:50:21.709Z,46.87
2023-05-20T01:52:49.467Z,47.19
2023-05-20T01:55:17.476Z,47.22
2023-05-20T01:57:46.290Z,47.28
2023-05-20T02:00:14.438Z,47.21
2023-05-20T02:02:43.314Z,47.31
2023-05-20T02:05:13.247Z,47.24
2023-05-20T02:07:43.716Z,47.45
2023-05-20T02:10:12.186Z,47.81
2023-05-20T02:12:40.091Z,47.75
2023-05-20T02:15:08.836Z,47.72
2023-05-20T02:17:37.737Z,48.05
2023-05-20T02:20:25.708Z,47.98
2023-05-20T02:22:53.620Z,48.27
2023-05-20T02:25:21.500Z,48.41
2023-05-20T02:27:49.465Z,48.47
2023-05-20T02:30:17.558Z,48.63
2023-05-20T02:32:45.588Z,48.73
2023-05-20T02:35:13.428Z,48.65
2023-05-20T02:37:41.473Z,48.64
2023-05-20T02:40:11.617Z,48.48
2023-05-20T02:42:41.684Z,48.47
2023-05-20T02:45:10.064Z,49.08
2023-05-20T02:47:39.385Z,49.17
2023-05-20T02:50:08.124Z,49.15
2023-05-20T02:52:36.993Z,49.26
2023-05-20T02:55:06.694Z,49.34
2023-05-20T02:57:38.425Z,49.20
2023-05-20T03:00:13.426Z,49.59
2023-05-20T03:02:41.385Z,49.29
2023-05-20T03:05:09.986Z,49.61
2023-05-20T03:07:37.718Z,49.82
2023-05-20T03:10:11.125Z,49.93
2023-05-20T03:12:41.916Z,50.33
2023-05-20T03:15:11.540Z,50.29
2023-05-20T03:17:39.523Z,50.38
2023-05-20T03:20:08.350Z,50.28
2023-05-20T03:22:36.436Z,50.15
2023-05-20T03:25:06.684Z,50.23
2023-05-20T03:27:37.359Z,50.09
2023-05-20T03:30:06.243Z,50.19
2023-05-20T03:32:34.040Z,50.38
2023-05-20T03:35:02.266Z,50.08
2023-05-20T03:37:31.546Z,50.03
2023-05-20T03:39:59.219Z,49.99
2023-05-20T03:42:26.844Z,50.19
2023-05-20T03:44:55.211Z,50.49
2023-05-20T03:47:22.892Z,49.86
2023-05-20T03:49:50.667Z,50.07
2023-05-20T03:52:18.640Z,49.85
2023-05-20T03:54:46.324Z,49.96
2023-05-20T03:57:14.131Z,50.01
2023-05-20T03:59:41.958Z,50.19
2023-05-20T04:02:10.058Z,50.07
2023-05-20T04:04:38.164Z,50.12
2023-05-20T04:07:07.113Z,49.67
2023-05-20T04:09:35.070Z,49.71
2023-05-20T04:12:05.777Z,49.76
2023-05-20T04:14:36.685Z,49.96
2023-05-20T04:17:04.953Z,50.01
2023-05-20T04:19:35.012Z,49.88
2023-05-20T04:22:03.247Z,49.82
2023-05-20T04:24:32.562Z,50.08
2023-05-20T04:27:00.463Z,49.97
2023-05-20T04:29:30.186Z,49.90
2023-05-20T04:31:58.931Z,49.74
2023-05-20T04:34:30.039Z,49.84
2023-05-20T04:36:58.107Z,49.70
2023-05-20T04:39:27.206Z,49.73
2023-05-20T04:41:57.552Z,49.50
2023-05-20T04:44:26.640Z,49.50
2023-05-20T04:46:54.514Z,49.12
2023-05-20T04:49:22.242Z,48.55
2023-05-20T04:51:50.342Z,48.41
2023-05-20T04:54:20.426Z,48.14
2023-05-20T04:56:48.381Z,48.14
2023-05-20T04:59:15.991Z,47.90
2023-05-20T05:01:44.080Z,47.59
2023-05-20T05:04:11.870Z,48.01
2023-05-20T05:06:39.783Z,47.32
2023-05-20T05:09:08.262Z,47.69
2023-05-20T05:11:39.373Z,46.99
2023-05-20T05:14:07.583Z,47.05
2023-05-20T05:16:35.869Z,46.42
2023-05-20T05:19:03.777Z,46.30
2023-05-20T05:21:34.826Z,46.17
2023-05-20T05:24:02.750Z,46.16
2023-05-20T05:26:30.700Z,45.63
2023-05-20T05:28:59.404Z,45.84
2023-05-20T05:31:27.174Z,45.60
2023-05-20T05:33:55.544Z,45.86
2023-05-20T05:36:26.278Z,45.38
2023-05-20T05:38:55.237Z,45.37
2023-05-20T05:41:23.954Z,44.79
2023-05-20T05:43:53.022Z,44.52
2023-05-20T05:46:21.213Z,44.71
2023-05-20T05:48:51.754Z,44.84
2023-05-20T05:51:33.806Z,44.59
2023-05-20T05:54:15.715Z,44.51
2023-05-20T05:56:44.189Z,44.46
2023-05-20T05:59:11.774Z,44.58
2023-05-20T06:01:39.730Z,44.20
2023-05-20T06:04:07.428Z,43.76
2023-05-20T06:06:36.087Z,43.69
2023-05-20T06:09:04.026Z,43.97
2023-05-20T06:11:34.457Z,43.66
2023-05-20T06:14:03.615Z,43.24
2023-05-20T06:16:32.205Z,43.34
2023-05-20T06:19:03.496Z,43.53
2023-05-20T06:21:33.032Z,43.53
2023-05-20T06:24:03.305Z,43.54
2023-05-20T06:26:31.265Z,43.26
2023-05-20T06:29:00.800Z,42.72
2023-05-20T06:31:30.353Z,42.94
2023-05-20T06:33:58.827Z,42.79
2023-05-20T06:36:28.317Z,42.70
2023-05-20T06:38:56.063Z,42.23
2023-05-20T06:41:25.314Z,42.03
2023-05-20T06:43:53.553Z,42.08
2023-05-20T06:46:40.252Z,42.18
2023-05-20T06:49:12.872Z,42.50
2023-05-20T06:51:41.611Z,42.38
2023-05-20T06:54:09.693Z,42.49
2023-05-20T06:56:37.708Z,42.37
2023-05-20T06:59:07.013Z,42.52
2023-05-20T07:01:36.310Z,42.59
2023-05-20T07:04:05.646Z,42.70
2023-05-20T07:06:34.254Z,42.91
2023-05-20T07:09:02.144Z,42.94
2023-05-20T07:11:30.031Z,43.07
2023-05-20T07:13:58.061Z,42.88
2023-05-20T07:16:27.189Z,42.56
2023-05-20T07:18:59.420Z,42.38
2023-05-20T07:21:27.295Z,42.25
2023-05-20T07:24:04.136Z,41.89
2023-05-20T07:26:34.084Z,41.81
2023-05-20T07:29:02.262Z,42.06
2023-05-20T07:31:30.589Z,42.00
2023-05-20T07:33:58.998Z,41.87
2023-05-20T07:36:31.127Z,41.75
2023-05-20T07:39:08.417Z,41.35
2023-05-20T07:41:40.771Z,41.24
2023-05-20T07:44:08.928Z,41.20
2023-05-20T07:46:40.081Z,41.01
2023-05-20T07:49:08.291Z,40.67
2023-05-20T07:51:37.042Z,40.63
2023-05-20T07:54:06.502Z,39.73
2023-05-20T07:56:35.053Z,39.14
2023-05-20T07:59:03.545Z,39.03
2023-05-20T08:01:36.742Z,38.65
2023-05-20T08:04:06.292Z,38.63
2023-05-20T08:06:35.528Z,38.85
2023-05-20T08:09:05.256Z,38.55
2023-05-20T08:11:36.163Z,38.29
2023-05-20T08:14:03.927Z,37.84
2023-05-20T08:16:38.020Z,37.92
2023-05-20T08:19:05.845Z,37.43
2023-05-20T08:21:33.583Z,37.34
2023-05-20T08:24:02.690Z,36.50
2023-05-20T08:26:31.729Z,35.78
2023-05-20T08:29:02.065Z,35.21
2023-05-20T08:31:29.912Z,34.93
2023-05-20T08:33:58.133Z,34.67
2023-05-20T08:36:26.092Z,35.15
2023-05-20T08:38:53.698Z,35.02
2023-05-20T08:41:22.820Z,34.73
2023-05-20T08:43:53.328Z,34.65
2023-05-20T08:46:22.748Z,34.41
2023-05-20T08:48:50.901Z,33.73
2023-05-20T08:51:22.380Z,33.88
2023-05-20T08:53:51.306Z,33.64
2023-05-20T08:56:19.195Z,32.55
2023-05-20T08:58:47.642Z,32.49
2023-05-20T09:01:15.665Z,32.23
2023-05-20T09:03:43.505Z,32.58
2023-05-20T09:06:12.872Z,32.43
2023-05-20T09:08:40.389Z,32.76
2023-05-20T09:11:10.324Z,32.69
2023-05-20T09:13:37.960Z,32.56
2023-05-20T09:16:06.104Z,32.74
2023-05-20T09:18:33.775Z,32.49
2023-05-20T09:21:07.381Z,32.81
2023-05-20T09:23:38.438Z,32.98
2023-05-20T09:26:06.923Z,33.00
2023-05-20T09:28:36.186Z,33.07
2023-05-20T09:31:06.635Z,32.89
2023-05-20T09:33:35.903Z,33.12
2023-05-20T09:36:10.767Z,33.43
2023-05-20T09:38:40.193Z,33.12
2023-05-20T09:41:14.028Z,32.99
2023-05-20T09:43:42.071Z,32.74
2023-05-20T09:46:11.045Z,32.95
2023-05-20T09:48:40.063Z,32.99
2023-05-20T09:51:08.386Z,32.59
2023-05-20T09:53:36.346Z,32.74
2023-05-20T09:56:04.199Z,32.55
2023-05-20T09:58:35.964Z,32.74
2023-05-20T10:01:04.080Z,32.40
2023-05-20T10:03:33.599Z,32.24
2023-05-20T10:06:10.790Z,32.62
2023-05-20T10:08:50.680Z,33.05
2023-05-20T10:11:36.791Z,33.44
2023-05-20T10:14:19.797Z,33.73
2023-05-20T10:17:45.709Z,34.19
2023-05-20T10:20:13.654Z,34.36
2023-05-20T10:22:41.582Z,34.63
2023-05-20T10:25:23.591Z,34.70
2023-05-20T10:27:51.724Z,35.02
2023-05-20T10:30:22.832Z,35.09
2023-05-20T10:32:57.495Z,35.21
2023-05-20T10:35:27.525Z,34.97
2023-05-20T10:38:10.948Z,34.43
2023-05-20T10:40:39.532Z,33.34
2023-05-20T10:43:14.654Z,32.67
2023-05-20T10:46:30.787Z,32.60
2023-05-20T10:49:02.613Z,32.99
2023-05-20T10:51:32.222Z,32.98
2023-05-20T10:53:59.838Z,32.64
2023-05-20T10:56:27.580Z,32.59
2023-05-20T10:58:56.180Z,32.63
2023-05-20T11:01:27.727Z,32.45
2023-05-20T11:03:57.578Z,32.57
2023-05-20T11:06:29.201Z,32.52
2023-05-20T11:09:05.835Z,32.60
2023-05-20T11:11:33.619Z,32.28
2023-05-20T11:14:01.455Z,32.22
2023-05-20T11:16:29.454Z,32.34
2023-05-20T11:18:57.459Z,32.46
2023-05-20T11:21:25.283Z,32.83
2023-05-20T11:23:53.523Z,32.93
2023-05-20T11:26:21.503Z,32.66
2023-05-20T11:28:49.351Z,32.54
2023-05-20T11:31:18.991Z,32.56
2023-05-20T11:33:46.696Z,32.42
2023-05-20T11:36:26.781Z,32.55
2023-05-20T11:38:58.955Z,32.25
2023-05-20T11:41:27.714Z,32.46
2023-05-20T11:43:59.697Z,32.06
2023-05-20T11:46:28.610Z,32.29
2023-05-20T11:48:57.789Z,32.76
2023-05-20T11:51:29.652Z,33.06
2023-05-20T11:54:04.992Z,33.18
2023-05-20T11:56:37.729Z,33.10
2023-05-20T11:59:06.833Z,33.03
2023-05-20T12:01:43.713Z,32.84
2023-05-20T12:04:13.715Z,32.51
2023-05-20T12:06:43.045Z,32.20
2023-05-20T12:09:11.486Z,31.36
2023-05-20T12:11:41.700Z,30.98
2023-05-20T12:14:09.751Z,30.69
2023-05-20T12:16:39.222Z,30.59
2023-05-20T12:19:11.175Z,30.43
2023-05-20T12:21:39.406Z,30.04
2023-05-20T12:24:08.713Z,29.92
2023-05-20T12:26:36.668Z,29.82
2023-05-20T12:29:04.486Z,29.87
2023-05-20T12:31:34.950Z,29.98
2023-05-20T12:34:03.890Z,29.83
2023-05-20T12:36:34.083Z,29.88
2023-05-20T12:39:01.963Z,29.86
2023-05-20T12:41:30.955Z,30.03
2023-05-20T12:43:58.894Z,29.98
2023-05-20T12:46:27.059Z,29.95
2023-05-20T12:48:56.933Z,29.65
2023-05-20T12:51:24.776Z,29.86
2023-05-20T12:53:52.320Z,29.74
2023-05-20T12:56:20.357Z,30.31
2023-05-20T12:58:48.075Z,30.18
2023-05-20T13:01:17.407Z,30.79
2023-05-20T13:03:45.240Z,31.08
2023-05-20T13:06:13.085Z,31.55
2023-05-20T13:08:40.875Z,31.47
2023-05-20T13:11:08.597Z,31.09
2023-05-20T13:13:36.655Z,30.47
2023-05-20T13:16:05.103Z,30.12
2023-05-20T13:18:32.710Z,29.88
2023-05-20T13:21:00.215Z,30.10
2023-05-20T13:23:28.534Z,30.08
2023-05-20T13:25:56.406Z,29.86
2023-05-20T13:28:24.142Z,30.33
2023-05-20T13:30:52.046Z,30.52
2023-05-20T13:33:24.303Z,30.64
2023-05-20T13:35:51.836Z,30.52
2023-05-20T13:38:19.530Z,30.77
2023-05-20T13:40:47.473Z,30.71
2023-05-20T13:43:16.426Z,30.83
2023-05-20T13:45:44.219Z,31.17
2023-05-20T13:48:12.098Z,31.40
2023-05-20T13:50:39.811Z,31.56
2023-05-20T13:53:07.579Z,31.82
2023-05-20T13:55:36.490Z,32.23
2023-05-20T13:58:05.889Z,32.75
2023-05-20T14:00:34.239Z,32.82
2023-05-20T14:03:04.823Z,33.01
2023-05-20T14:05:33.747Z,33.21
2023-05-20T14:08:01.658Z,33.51
2023-05-20T14:10:29.206Z,33.82
2023-05-20T14:13:02.451Z,33.92
2023-05-20T14:15:30.911Z,33.71
2023-05-20T14:17:59.331Z,33.94
2023-05-20T14:20:27.412Z,33.84
2023-05-20T14:22:55.237Z,33.51
2023-05-20T14:25:23.829Z,33.54
2023-05-20T14:27:51.563Z,33.57
2023-05-20T14:30:19.244Z,33.50
2023-05-20T14:32:47.271Z,33.71
2023-05-20T14:35:15.263Z,33.89
2023-05-20T14:37:42.911Z,34.07
2023-05-20T14:40:11.223Z,34.05
2023-05-20T14:42:39.420Z,34.30
2023-05-20T14:45:07.657Z,34.83
2023-05-20T14:47:35.262Z,35.03
2023-05-20T14:50:03.538Z,35.36
2023-05-20T14:52:32.254Z,35.53
2023-05-20T14:54:59.786Z,35.47
2023-05-20T14:57:27.786Z,35.35
2023-05-20T14:59:55.894Z,35.40
2023-05-20T15:02:23.550Z,35.16
2023-05-20T15:04:51.575Z,35.12
2023-05-20T15:07:19.352Z,35.22
2023-05-20T15:09:46.860Z,35.11
2023-05-20T15:12:14.741Z,35.13
2023-05-20T15:14:42.334Z,35.01
2023-05-20T15:17:10.759Z,34.82
2023-05-20T15:19:41.423Z,33.46
2023-05-20T15:22:09.615Z,30.28
2023-05-20T15:24:37.228Z,27.51
2023-05-20T15:27:05.315Z,26.36
2023-05-20T15:29:33.010Z,24.66
2023-05-20T15:32:00.584Z,22.78
2023-05-20T15:34:28.182Z,22.63
2023-05-20T15:36:56.091Z,22.66
2023-05-20T15:39:23.742Z,22.96
2023-05-20T15:41:52.422Z,24.69
2023-05-20T15:44:20.185Z,27.32
2023-05-20T15:46:47.900Z,29.15
2023-05-20T15:49:15.846Z,30.77
2023-05-20T15:51:52.361Z,32.09
2023-05-20T15:54:29.799Z,33.04
2023-05-20T15:56:58.311Z,33.58
2023-05-20T15:59:26.208Z,33.81
2023-05-20T16:01:53.732Z,34.33
2023-05-20T16:04:21.400Z,34.63
2023-05-20T16:06:49.613Z,34.81
2023-05-20T16:09:17.243Z,35.00
2023-05-20T16:11:45.361Z,35.22
2023-05-20T16:14:12.913Z,35.79
2023-05-20T16:16:41.016Z,36.04
2023-05-20T16:19:08.726Z,36.47
2023-05-20T16:21:37.531Z,36.84
2023-05-20T16:24:05.682Z,36.69
2023-05-20T16:26:33.870Z,36.71
2023-05-20T16:29:01.341Z,36.59
2023-05-20T16:31:29.260Z,36.65
2023-05-20T16:33:57.692Z,36.49
2023-05-20T16:36:25.942Z,36.51
2023-05-20T16:38:54.326Z,36.82
2023-05-20T16:41:22.934Z,36.89
2023-05-20T16:43:50.484Z,36.88
2023-05-20T16:46:18.390Z,37.02
2023-05-20T16:48:46.273Z,37.14
2023-05-20T16:51:13.945Z,37.38
2023-05-20T16:53:41.619Z,37.53
2023-05-20T16:56:09.531Z,37.62
2023-05-20T16:58:37.457Z,38.08
2023-05-20T17:01:05.258Z,38.53
2023-05-20T17:03:33.550Z,38.89
2023-05-20T17:06:01.868Z,39.11
2023-05-20T17:08:29.969Z,39.34
2023-05-20T17:10:59.970Z,39.73
2023-05-20T17:13:27.449Z,39.90
2023-05-20T17:15:56.201Z,40.25
2023-05-20T17:18:24.001Z,40.22
2023-05-20T17:20:51.948Z,40.27
2023-05-20T17:23:19.772Z,40.60
2023-05-20T17:25:47.256Z,40.97
2023-05-20T17:28:15.106Z,41.29
2023-05-20T17:30:42.858Z,41.52
2023-05-20T17:33:11.196Z,41.87
2023-05-20T17:35:39.317Z,41.97
2023-05-20T17:38:06.901Z,42.24
2023-05-20T17:40:34.554Z,42.57
2023-05-20T17:43:02.174Z,42.58
2023-05-20T17:45:29.637Z,42.79
2023-05-20T17:47:57.435Z,43.26
2023-05-20T17:50:25.335Z,43.94
2023-05-20T17:52:52.861Z,44.12
2023-05-20T17:55:22.135Z,44.85
2023-05-20T17:57:50.930Z,45.71
2023-05-20T18:00:21.504Z,46.37
2023-05-20T18:02:49.443Z,47.42
2023-05-20T18:05:18.544Z,48.19
2023-05-20T18:07:46.533Z,49.49
2023-05-20T18:10:14.691Z,50.44
2023-05-20T18:12:51.279Z,51.85
2023-05-20T18:15:24.235Z,53.08
2023-05-20T18:18:09.528Z,53.20
2023-05-20T18:20:37.737Z,53.53
2023-05-20T18:23:05.596Z,53.84
2023-05-20T18:25:33.382Z,53.67
2023-05-20T18:28:01.753Z,53.75
2023-05-20T18:30:29.488Z,53.90
2023-05-20T18:32:57.854Z,53.83
2023-05-20T18:35:25.747Z,53.87
2023-05-20T18:37:53.675Z,53.66
2023-05-20T18:40:21.969Z,53.82
2023-05-20T18:42:54.312Z,53.58
2023-05-20T18:45:22.089Z,54.04
2023-05-20T18:47:50.235Z,53.82
2023-05-20T18:50:17.996Z,53.78
2023-05-20T18:52:45.723Z,53.81
2023-05-20T18:55:13.474Z,53.86
2023-05-20T18:57:41.486Z,53.89
2023-05-20T19:00:12.708Z,53.99
2023-05-20T19:02:40.854Z,54.16
2023-05-20T19:05:09.803Z,54.51
2023-05-20T19:07:38.707Z,54.57
2023-05-20T19:10:07.600Z,54.73
2023-05-20T19:12:35.195Z,55.61
2023-05-20T19:15:03.126Z,56.18
2023-05-20T19:17:32.877Z,56.80
2023-05-20T19:20:00.646Z,57.19
2023-05-20T19:22:28.680Z,57.68
2023-05-20T19:24:56.677Z,58.12
2023-05-20T19:27:24.754Z,57.93
2023-05-20T19:29:52.820Z,58.58
2023-05-20T19:32:20.856Z,58.49
2023-05-20T19:34:48.851Z,58.83
2023-05-20T19:37:16.490Z,58.66
2023-05-20T19:39:44.220Z,58.76
2023-05-20T19:42:12.211Z,58.87
2023-05-20T19:44:39.892Z,58.84
2023-05-20T19:47:07.988Z,58.77
2023-05-20T19:49:35.969Z,58.98
2023-05-20T19:52:03.525Z,58.95
2023-05-20T19:54:31.088Z,58.84
2023-05-20T19:56:58.538Z,58.64
2023-05-20T19:59:28.308Z,58.57
2023-05-20T20:01:56.101Z,58.26
2023-05-20T20:04:23.850Z,58.33
2023-05-20T20:06:51.622Z,58.42
2023-05-20T20:09:19.383Z,58.50
2023-05-20T20:11:47.006Z,58.50
2023-05-20T20:14:14.758Z,58.38
2023-05-20T20:16:49.501Z,58.27
2023-05-20T20:19:23.045Z,57.83
2023-05-20T20:21:53.252Z,57.95
2023-05-20T20:24:21.158Z,58.16
2023-05-20T20:26:48.948Z,58.37
2023-05-20T20:29:17.005Z,58.83
2023-05-20T20:31:50.357Z,59.84
2023-05-20T20:34:28.482Z,60.40
2023-05-20T20:37:15.552Z,60.52
2023-05-20T20:39:53.708Z,60.82
2023-05-20T20:45:32.672Z,61.63
2023-05-20T20:48:06.646Z,61.94
2023-05-20T20:50:38.717Z,62.31
2023-05-20T20:53:07.107Z,62.41
2023-05-20T20:55:53.896Z,62.77
2023-05-20T21:11:46.123Z,62.09
2023-05-20T21:14:14.207Z,62.52
2023-05-20T21:16:43.559Z,63.27
2023-05-20T21:19:11.384Z,64.43
2023-05-20T21:21:39.055Z,64.43
2023-05-20T21:24:07.279Z,65.11
2023-05-20T21:26:35.451Z,65.73
2023-05-20T21:29:03.388Z,65.69
2023-05-20T21:31:32.514Z,65.86
2023-05-20T21:34:00.946Z,66.03
2023-05-20T21:36:28.896Z,66.52
2023-05-20T21:38:57.038Z,66.91
2023-05-20T21:41:25.534Z,67.18
2023-05-20T21:43:53.710Z,67.42
2023-05-20T21:46:21.846Z,67.45
2023-05-20T21:48:49.760Z,68.05
2023-05-20T21:51:17.623Z,68.06
2023-05-20T21:53:48.074Z,68.39
2023-05-20T21:56:16.616Z,68.72
2023-05-20T21:58:47.863Z,68.64
2023-05-20T22:01:15.684Z,68.73
2023-05-20T22:03:48.691Z,68.63
2023-05-20T22:06:21.770Z,68.30
2023-05-20T22:08:50.060Z,68.40
2023-05-20T22:11:18.253Z,68.10
2023-05-20T22:13:46.522Z,68.13
2023-05-20T22:16:14.547Z,67.89
2023-05-20T22:18:42.875Z,68.17
2023-05-20T22:21:11.334Z,68.19
2023-05-20T22:23:41.577Z,68.40
2023-05-20T22:26:10.342Z,67.94
2023-05-20T22:28:38.389Z,67.98
2023-05-20T22:31:06.517Z,68.07
2023-05-20T22:33:34.456Z,67.87
2023-05-20T22:36:02.425Z,67.92
2023-05-20T22:38:30.980Z,67.94
2023-05-20T22:40:58.585Z,67.93
2023-05-20T22:43:26.725Z,68.08
2023-05-20T22:45:54.785Z,68.05
2023-05-20T22:48:23.239Z,68.14
2023-05-20T22:50:51.487Z,68.16
2023-05-20T22:53:19.516Z,68.14
2023-05-20T22:55:47.094Z,68.13
2023-05-20T22:58:15.375Z,67.96
2023-05-20T23:00:44.599Z,67.91
2023-05-20T23:03:12.770Z,67.80
2023-05-20T23:05:40.459Z,67.95
2023-05-20T23:08:08.259Z,67.85
2023-05-20T23:10:36.480Z,67.86
2023-05-20T23:13:04.143Z,67.87
2023-05-20T23:15:32.823Z,68.29
2023-05-20T23:18:00.754Z,68.28
2023-05-20T23:20:32.065Z,68.46
2023-05-20T23:23:05.595Z,68.52
2023-05-20T23:25:39.386Z,68.75
2023-05-20T23:28:09.816Z,68.95
2023-05-20T23:30:37.856Z,68.83
2023-05-20T23:33:05.779Z,68.90
2023-05-20T23:35:34.293Z,68.96
2023-05-20T23:38:03.283Z,68.91
2023-05-20T23:40:31.713Z,69.10
2023-05-20T23:46:59.716Z,69.01
2023-05-20T23:49:29.896Z,69.11
2023-05-20T23:51:58.012Z,69.20
2023-05-20T23:54:34.441Z,69.10
